createdAt,value
2022-12-15T00:02:18.541Z,23.33
2022-12-15T00:05:04.142Z,23.34
2022-12-15T00:07:49.623Z,23.33
2022-12-15T00:10:35.500Z,23.32
2022-12-15T00:13:20.770Z,23.32
2022-12-15T00:16:07.879Z,23.30
2022-12-15T00:18:53.685Z,23.29
2022-12-15T00:21:39.227Z,23.27
2022-12-15T00:24:25.407Z,23.28
2022-12-15T00:27:11.125Z,23.28
2022-12-15T00:29:56.489Z,23.28
2022-12-15T00:32:43.988Z,23.28
2022-12-15T00:35:29.519Z,23.26
2022-12-15T00:38:15.983Z,23.25
2022-12-15T00:40:44.173Z,23.25
2022-12-15T00:43:13.248Z,23.23
2022-12-15T00:45:59.061Z,23.24
2022-12-15T00:48:28.984Z,23.24
2022-12-15T00:50:56.176Z,23.25
2022-12-15T00:53:42.520Z,23.24
2022-12-15T00:56:28.259Z,23.25
2022-12-15T00:59:13.814Z,23.24
2022-12-15T01:01:59.711Z,23.24
2022-12-15T01:04:47.007Z,23.23
2022-12-15T01:07:32.752Z,23.23
2022-12-15T01:10:18.065Z,23.23
2022-12-15T01:13:03.997Z,23.20
2022-12-15T01:15:49.467Z,23.18
2022-12-15T01:18:35.216Z,23.16
2022-12-15T01:21:06.750Z,23.15
2022-12-15T01:23:35.447Z,23.16
2022-12-15T01:26:03.869Z,23.16
2022-12-15T01:28:32.134Z,23.14
2022-12-15T01:31:00.571Z,23.14
2022-12-15T01:33:29.370Z,23.14
2022-12-15T01:35:59.216Z,23.14
2022-12-15T01:38:29.222Z,23.11
2022-12-15T01:40:59.632Z,23.11
2022-12-15T01:43:29.599Z,23.11
2022-12-15T01:46:01.481Z,23.12
2022-12-15T01:48:40.949Z,23.14
2022-12-15T01:51:18.067Z,23.17
2022-12-15T01:53:50.347Z,23.13
2022-12-15T01:56:19.276Z,23.11
2022-12-15T01:58:48.295Z,23.10
2022-12-15T02:01:16.487Z,23.11
2022-12-15T02:03:44.740Z,23.11
2022-12-15T02:06:13.225Z,23.09
2022-12-15T02:08:41.381Z,23.09
2022-12-15T02:11:39.555Z,23.10
2022-12-15T02:14:08.357Z,23.09
2022-12-15T02:16:44.665Z,23.09
2022-12-15T02:19:25.610Z,23.08
2022-12-15T02:21:58.613Z,23.06
2022-12-15T02:24:40.408Z,23.05
2022-12-15T02:27:14.683Z,23.05
2022-12-15T02:30:05.687Z,23.06
2022-12-15T02:32:36.341Z,23.04
2022-12-15T02:35:06.794Z,23.03
2022-12-15T02:37:35.837Z,23.04
2022-12-15T02:40:04.157Z,23.04
2022-12-15T02:42:32.292Z,23.04
2022-12-15T02:45:01.692Z,23.02
2022-12-15T02:47:35.250Z,23.01
2022-12-15T02:50:29.309Z,23.01
2022-12-15T02:53:04.217Z,23.01
2022-12-15T02:55:37.221Z,22.99
2022-12-15T02:58:08.035Z,23.00
2022-12-15T03:00:39.043Z,23.01
2022-12-15T03:03:08.826Z,23.02
2022-12-15T03:05:37.226Z,23.00
2022-12-15T03:08:05.761Z,23.00
2022-12-15T03:10:33.990Z,22.98
2022-12-15T03:13:02.188Z,22.96
2022-12-15T03:15:35.072Z,22.96
2022-12-15T03:18:03.542Z,22.96
2022-12-15T03:20:33.019Z,22.97
2022-12-15T03:23:02.134Z,22.97
2022-12-15T03:25:30.485Z,22.97
2022-12-15T03:27:59.088Z,22.96
2022-12-15T03:30:27.261Z,22.97
2022-12-15T03:32:55.772Z,22.96
2022-12-15T03:35:23.979Z,22.96
2022-12-15T03:37:53.526Z,22.95
2022-12-15T03:40:21.767Z,22.94
2022-12-15T03:42:50.081Z,22.93
2022-12-15T03:45:19.354Z,22.93
2022-12-15T03:47:47.803Z,22.93
2022-12-15T03:50:17.757Z,22.92
2022-12-15T03:52:45.996Z,22.92
2022-12-15T03:55:16.109Z,22.92
2022-12-15T03:57:44.322Z,22.91
2022-12-15T04:00:15.010Z,22.92
2022-12-15T04:02:43.455Z,22.91
2022-12-15T04:05:13.786Z,22.91
2022-12-15T04:07:41.924Z,22.89
2022-12-15T04:10:10.846Z,22.89
2022-12-15T04:12:40.690Z,22.88
2022-12-15T04:15:09.945Z,22.85
2022-12-15T04:17:38.166Z,22.86
2022-12-15T04:20:12.226Z,22.86
2022-12-15T04:22:41.026Z,22.86
2022-12-15T04:25:28.090Z,22.86
2022-12-15T04:28:14.985Z,22.83
2022-12-15T04:31:02.893Z,22.85
2022-12-15T04:33:48.489Z,22.84
2022-12-15T04:36:34.120Z,22.83
2022-12-15T04:39:19.869Z,22.82
2022-12-15T04:42:05.318Z,22.83
2022-12-15T04:44:52.442Z,22.81
2022-12-15T04:47:37.859Z,22.80
2022-12-15T04:50:24.139Z,22.80
2022-12-15T04:53:10.031Z,22.79
2022-12-15T04:55:55.580Z,22.79
2022-12-15T04:58:40.838Z,22.78
2022-12-15T05:01:27.814Z,22.78
2022-12-15T05:04:13.217Z,22.77
2022-12-15T05:06:58.908Z,22.77
2022-12-15T05:09:44.424Z,22.75
2022-12-15T05:12:29.779Z,22.76
2022-12-15T05:15:15.070Z,22.75
2022-12-15T05:18:01.993Z,22.76
2022-12-15T05:20:49.947Z,22.77
2022-12-15T05:23:35.515Z,22.76
2022-12-15T05:26:21.314Z,22.77
2022-12-15T05:29:06.699Z,22.78
2022-12-15T05:31:52.207Z,22.77
2022-12-15T05:34:22.707Z,22.77
2022-12-15T05:36:50.943Z,22.77
2022-12-15T05:39:19.053Z,22.78
2022-12-15T05:41:47.362Z,22.79
2022-12-15T05:44:15.673Z,22.78
2022-12-15T05:46:46.530Z,22.81
2022-12-15T05:49:16.240Z,22.81
2022-12-15T05:51:46.651Z,22.83
2022-12-15T05:54:16.537Z,22.81
2022-12-15T05:56:44.770Z,22.81
2022-12-15T05:59:12.975Z,22.81
2022-12-15T06:01:41.202Z,22.81
2022-12-15T06:04:09.437Z,22.81
2022-12-15T06:06:37.543Z,22.83
2022-12-15T06:09:07.112Z,22.85
2022-12-15T06:11:35.244Z,22.85
2022-12-15T06:14:03.327Z,22.83
2022-12-15T06:16:31.800Z,22.85
2022-12-15T06:19:01.091Z,22.86
2022-12-15T06:21:31.145Z,22.83
2022-12-15T06:24:00.736Z,22.85
2022-12-15T06:26:31.084Z,22.87
2022-12-15T06:29:02.658Z,22.88
2022-12-15T06:31:31.033Z,22.89
2022-12-15T06:34:02.102Z,22.89
2022-12-15T06:36:30.976Z,22.89
2022-12-15T06:38:59.868Z,22.89
2022-12-15T06:41:27.988Z,22.90
2022-12-15T06:43:57.493Z,22.89
2022-12-15T06:46:25.819Z,22.90
2022-12-15T06:48:53.989Z,22.91
2022-12-15T06:51:22.159Z,22.92
2022-12-15T06:53:54.270Z,22.94
2022-12-15T06:56:30.410Z,22.93
2022-12-15T06:59:03.551Z,22.93
2022-12-15T07:01:32.037Z,22.93
2022-12-15T07:04:01.685Z,22.94
2022-12-15T07:06:31.821Z,22.93
2022-12-15T07:09:00.007Z,22.94
2022-12-15T07:11:28.199Z,22.94
2022-12-15T07:13:56.330Z,22.95
2022-12-15T07:16:26.890Z,22.95
2022-12-15T07:18:55.129Z,22.96
2022-12-15T07:21:23.247Z,22.97
2022-12-15T07:23:56.347Z,22.96
2022-12-15T07:26:25.441Z,22.97
2022-12-15T07:28:54.522Z,22.97
2022-12-15T07:31:23.097Z,22.97
2022-12-15T07:33:54.867Z,22.98
2022-12-15T07:36:23.197Z,22.99
2022-12-15T07:38:51.929Z,23.00
2022-12-15T07:41:20.453Z,23.00
2022-12-15T07:43:48.956Z,23.01
2022-12-15T07:46:18.194Z,23.01
2022-12-15T07:48:50.041Z,23.02
2022-12-15T07:51:21.320Z,23.04
2022-12-15T07:53:50.745Z,23.04
2022-12-15T07:56:19.095Z,23.05
2022-12-15T07:58:47.252Z,23.05
2022-12-15T08:01:15.644Z,23.05
2022-12-15T08:03:43.898Z,23.05
2022-12-15T08:06:12.687Z,23.06
2022-12-15T08:08:42.212Z,23.06
2022-12-15T08:11:11.417Z,23.07
2022-12-15T08:16:28.047Z,23.08
2022-12-15T08:18:57.133Z,23.10
2022-12-15T08:21:25.403Z,23.10
2022-12-15T08:23:55.186Z,23.12
2022-12-15T08:26:28.428Z,23.12
2022-12-15T08:29:11.828Z,23.12
2022-12-15T08:31:46.013Z,23.13
2022-12-15T08:34:14.135Z,23.13
2022-12-15T08:36:42.402Z,23.14
2022-12-15T08:39:11.918Z,23.15
2022-12-15T08:41:41.240Z,23.17
2022-12-15T08:44:09.393Z,23.17
2022-12-15T08:46:37.564Z,23.18
2022-12-15T08:49:05.645Z,23.18
2022-12-15T08:51:34.053Z,23.19
2022-12-15T08:54:02.383Z,23.20
2022-12-15T08:56:31.917Z,23.21
2022-12-15T08:59:01.563Z,23.23
2022-12-15T09:01:31.410Z,23.24
2022-12-15T09:03:59.730Z,23.24
2022-12-15T09:06:28.804Z,23.25
2022-12-15T09:08:57.628Z,23.26
2022-12-15T09:11:26.025Z,23.27
2022-12-15T09:13:55.606Z,23.28
2022-12-15T09:16:23.929Z,23.29
2022-12-15T09:18:53.557Z,23.28
2022-12-15T09:21:22.625Z,23.30
2022-12-15T09:23:51.903Z,23.31
2022-12-15T09:26:20.804Z,23.31
2022-12-15T09:28:50.327Z,23.31
2022-12-15T09:31:22.220Z,23.32
2022-12-15T09:33:50.696Z,23.33
2022-12-15T09:36:18.905Z,23.34
2022-12-15T09:38:46.988Z,23.34
2022-12-15T09:41:23.650Z,23.36
2022-12-15T09:43:55.901Z,23.36
2022-12-15T09:46:28.666Z,23.37
2022-12-15T09:48:57.119Z,23.37
2022-12-15T09:51:30.208Z,23.37
2022-12-15T09:53:58.898Z,23.38
2022-12-15T09:56:31.068Z,23.39
2022-12-15T09:59:01.693Z,23.40
2022-12-15T10:01:33.616Z,23.39
2022-12-15T10:04:03.432Z,23.41
2022-12-15T10:06:33.619Z,23.43
2022-12-15T10:09:03.353Z,23.43
2022-12-15T10:11:41.435Z,23.42
2022-12-15T10:14:15.518Z,23.42
2022-12-15T10:16:51.695Z,23.42
2022-12-15T10:19:20.999Z,23.42
2022-12-15T10:21:50.644Z,23.45
2022-12-15T10:24:37.471Z,23.46
2022-12-15T10:27:16.523Z,23.46
2022-12-15T10:29:45.701Z,23.47
2022-12-15T10:32:21.439Z,23.47
2022-12-15T10:34:49.750Z,23.48
2022-12-15T10:37:19.502Z,23.48
2022-12-15T10:39:50.325Z,23.49
2022-12-15T10:42:21.178Z,23.49
2022-12-15T10:44:50.839Z,23.48
2022-12-15T10:47:22.673Z,23.49
2022-12-15T10:49:51.290Z,23.50
2022-12-15T10:52:28.529Z,23.49
2022-12-15T10:54:57.165Z,23.50
2022-12-15T10:57:28.802Z,23.50
2022-12-15T10:59:57.473Z,23.50
2022-12-15T11:02:36.880Z,23.54
2022-12-15T11:05:07.171Z,23.57
2022-12-15T11:07:39.889Z,23.59
2022-12-15T11:10:26.285Z,23.61
2022-12-15T11:13:14.049Z,23.61
2022-12-15T11:15:47.127Z,23.62
2022-12-15T11:18:39.205Z,23.65
2022-12-15T11:21:11.187Z,23.67
2022-12-15T11:23:48.730Z,23.71
2022-12-15T11:26:24.380Z,23.77
2022-12-15T11:28:56.236Z,23.79
2022-12-15T11:31:26.761Z,23.81
2022-12-15T11:33:56.485Z,23.83
2022-12-15T11:36:35.725Z,23.83
2022-12-15T11:39:05.316Z,23.81
2022-12-15T11:41:37.445Z,23.81
2022-12-15T11:44:20.121Z,23.81
2022-12-15T11:46:51.403Z,23.80
2022-12-15T11:49:55.686Z,23.81
2022-12-15T11:52:35.891Z,23.81
2022-12-15T11:55:07.758Z,23.80
2022-12-15T11:57:46.565Z,23.79
2022-12-15T12:00:19.593Z,23.80
2022-12-15T12:02:55.604Z,23.78
2022-12-15T12:05:55.713Z,23.80
2022-12-15T12:08:36.557Z,23.80
2022-12-15T12:11:07.786Z,23.80
2022-12-15T12:13:39.363Z,23.80
2022-12-15T12:16:11.573Z,23.79
2022-12-15T12:18:41.210Z,23.79
2022-12-15T12:21:11.986Z,23.79
2022-12-15T12:23:41.677Z,23.79
2022-12-15T12:26:12.611Z,23.79
2022-12-15T12:28:46.724Z,23.78
2022-12-15T12:31:22.553Z,23.78
2022-12-15T12:33:52.023Z,23.77
2022-12-15T12:36:21.532Z,23.78
2022-12-15T12:38:51.238Z,23.76
2022-12-15T12:41:23.706Z,23.75
2022-12-15T12:43:53.607Z,23.76
2022-12-15T12:46:23.452Z,23.76
2022-12-15T12:48:52.588Z,23.76
2022-12-15T12:51:51.949Z,23.74
2022-12-15T12:54:50.352Z,23.74
2022-12-15T12:57:45.402Z,23.72
2022-12-15T13:00:21.792Z,23.71
2022-12-15T13:02:56.232Z,23.71
2022-12-15T13:05:30.006Z,23.70
2022-12-15T13:08:27.349Z,23.70
2022-12-15T13:10:56.507Z,23.70
2022-12-15T13:13:42.041Z,23.70
2022-12-15T13:16:12.226Z,23.71
2022-12-15T13:18:59.485Z,23.72
2022-12-15T13:22:04.379Z,23.77
2022-12-15T13:24:36.103Z,23.76
2022-12-15T13:27:14.194Z,23.75
2022-12-15T13:30:01.144Z,23.72
2022-12-15T13:32:36.171Z,23.71
2022-12-15T13:35:25.225Z,23.72
2022-12-15T13:37:54.333Z,23.71
2022-12-15T13:40:33.886Z,23.72
2022-12-15T13:43:10.493Z,23.72
2022-12-15T13:45:50.241Z,23.70
2022-12-15T13:48:33.313Z,23.69
2022-12-15T13:51:10.401Z,23.69
2022-12-15T13:53:40.252Z,23.68
2022-12-15T13:56:20.989Z,23.67
2022-12-15T13:58:52.153Z,23.66
2022-12-15T14:01:23.928Z,23.66
2022-12-15T14:04:08.088Z,23.65
2022-12-15T14:06:37.975Z,23.65
2022-12-15T14:09:06.992Z,23.66
2022-12-15T14:11:52.843Z,23.64
2022-12-15T14:14:24.938Z,23.62
2022-12-15T14:16:57.280Z,23.63
2022-12-15T14:19:26.601Z,23.61
2022-12-15T14:21:55.818Z,23.60
2022-12-15T14:24:38.449Z,23.61
2022-12-15T14:27:09.259Z,23.61
2022-12-15T14:29:37.500Z,23.60
2022-12-15T14:32:06.109Z,23.61
2022-12-15T14:34:36.956Z,23.60
2022-12-15T14:37:08.905Z,23.59
2022-12-15T14:39:37.781Z,23.58
2022-12-15T14:42:06.063Z,23.58
2022-12-15T14:44:39.137Z,23.59
2022-12-15T14:47:08.566Z,23.59
2022-12-15T14:49:40.941Z,23.58
2022-12-15T14:52:13.854Z,23.58
2022-12-15T14:54:52.086Z,23.59
2022-12-15T14:57:23.541Z,23.58
2022-12-15T14:59:53.492Z,23.59
2022-12-15T15:02:23.009Z,23.60
2022-12-15T15:05:03.224Z,23.60
2022-12-15T15:07:32.368Z,23.61
2022-12-15T15:10:00.684Z,23.61
2022-12-15T15:12:40.312Z,23.61
2022-12-15T15:15:15.769Z,23.62
2022-12-15T15:17:46.928Z,23.62
2022-12-15T15:20:19.296Z,23.62
2022-12-15T15:22:47.761Z,23.62
2022-12-15T15:25:31.602Z,23.63
2022-12-15T15:28:15.566Z,23.62
2022-12-15T15:30:48.316Z,23.62
2022-12-15T15:33:17.155Z,23.63
2022-12-15T15:35:45.633Z,23.61
2022-12-15T15:38:18.206Z,23.61
2022-12-15T15:40:50.918Z,23.60
2022-12-15T15:43:19.543Z,23.61
2022-12-15T15:45:50.404Z,23.61
2022-12-15T15:48:20.686Z,23.60
2022-12-15T15:50:48.837Z,23.59
2022-12-15T15:53:18.249Z,23.57
2022-12-15T15:55:46.369Z,23.56
2022-12-15T15:58:14.555Z,23.58
2022-12-15T16:00:42.775Z,23.59
2022-12-15T16:03:12.469Z,23.60
2022-12-15T16:05:41.124Z,23.60
2022-12-15T16:08:11.156Z,23.60
2022-12-15T16:10:39.518Z,23.58
2022-12-15T16:13:07.686Z,23.59
2022-12-15T16:15:35.951Z,23.58
2022-12-15T16:18:04.084Z,23.59
2022-12-15T16:20:33.692Z,23.60
2022-12-15T16:23:02.901Z,23.62
2022-12-15T16:25:41.171Z,23.63
2022-12-15T16:28:14.249Z,23.64
2022-12-15T16:30:43.186Z,23.64
2022-12-15T16:33:11.481Z,23.65
2022-12-15T16:35:41.638Z,23.67
2022-12-15T16:38:15.952Z,23.69
2022-12-15T16:40:44.258Z,23.69
2022-12-15T16:43:16.039Z,23.71
2022-12-15T16:45:44.489Z,23.71
2022-12-15T16:48:12.844Z,23.71
2022-12-15T16:50:43.436Z,23.72
2022-12-15T16:53:15.355Z,23.72
2022-12-15T16:55:43.592Z,23.74
2022-12-15T16:58:14.955Z,23.74
2022-12-15T17:00:43.200Z,23.75
2022-12-15T17:03:13.444Z,23.74
2022-12-15T17:05:44.034Z,23.74
2022-12-15T17:08:19.922Z,23.73
2022-12-15T17:10:48.422Z,23.73
2022-12-15T17:13:36.550Z,23.73
2022-12-15T17:16:06.992Z,23.72
2022-12-15T17:18:35.292Z,23.72
2022-12-15T17:21:06.612Z,23.74
2022-12-15T17:23:35.254Z,23.78
2022-12-15T17:26:27.416Z,23.79
2022-12-15T17:28:51.937Z,23.82
2022-12-15T17:31:21.091Z,23.83
2022-12-15T17:33:49.240Z,23.83
2022-12-15T17:36:20.914Z,23.85
2022-12-15T17:38:49.117Z,23.85
2022-12-15T17:41:35.413Z,23.85
2022-12-15T17:44:32.237Z,23.84
2022-12-15T17:46:55.635Z,23.83
2022-12-15T17:49:23.812Z,23.82
2022-12-15T17:51:53.446Z,23.81
2022-12-15T17:54:21.634Z,23.82
2022-12-15T17:56:50.158Z,23.82
2022-12-15T17:59:20.181Z,23.81
2022-12-15T18:01:49.152Z,23.80
2022-12-15T18:04:17.720Z,23.80
2022-12-15T18:06:45.899Z,23.80
2022-12-15T18:09:16.221Z,23.79
2022-12-15T18:11:46.747Z,23.79
2022-12-15T18:14:15.430Z,23.78
2022-12-15T18:16:43.609Z,23.79
2022-12-15T18:19:11.918Z,23.79
2022-12-15T18:21:40.101Z,23.78
2022-12-15T18:24:12.273Z,23.78
2022-12-15T18:26:41.868Z,23.77
2022-12-15T18:29:14.275Z,23.78
2022-12-15T18:31:42.535Z,23.78
2022-12-15T18:34:12.802Z,23.78
2022-12-15T18:36:41.095Z,23.78
2022-12-15T18:39:17.192Z,23.78
2022-12-15T18:41:46.919Z,23.79
2022-12-15T18:44:19.286Z,23.79
2022-12-15T18:46:48.195Z,23.79
2022-12-15T18:49:16.728Z,23.80
2022-12-15T18:51:46.439Z,23.80
2022-12-15T18:54:18.293Z,23.81
2022-12-15T18:56:48.573Z,23.79
2022-12-15T18:59:17.824Z,23.79
2022-12-15T19:01:46.621Z,23.79
2022-12-15T19:04:14.942Z,23.79
2022-12-15T19:06:43.099Z,23.78
2022-12-15T19:09:14.872Z,23.78
2022-12-15T19:12:03.192Z,23.77
2022-12-15T19:14:42.830Z,23.76
2022-12-15T19:17:29.376Z,23.75
2022-12-15T19:20:15.438Z,23.74
2022-12-15T19:22:43.918Z,23.75
2022-12-15T19:25:25.512Z,23.74
2022-12-15T19:27:58.881Z,23.73
2022-12-15T19:30:29.502Z,23.74
2022-12-15T19:32:57.679Z,23.73
2022-12-15T19:35:25.918Z,23.74
2022-12-15T19:37:55.515Z,23.74
2022-12-15T19:40:24.927Z,23.73
2022-12-15T19:42:55.535Z,23.73
2022-12-15T19:45:25.081Z,23.74
2022-12-15T19:47:55.124Z,23.73
2022-12-15T19:50:24.449Z,23.74
2022-12-15T19:52:54.840Z,23.72
2022-12-15T19:55:25.745Z,23.71
2022-12-15T19:57:54.160Z,23.72
2022-12-15T20:00:24.865Z,23.72
2022-12-15T20:02:55.030Z,23.73
2022-12-15T20:05:23.881Z,23.74
2022-12-15T20:07:52.688Z,23.75
2022-12-15T20:10:27.535Z,23.75
2022-12-15T20:12:58.052Z,23.75
2022-12-15T20:15:26.594Z,23.77
2022-12-15T20:17:57.015Z,23.77
2022-12-15T20:20:26.861Z,23.78
2022-12-15T20:22:56.274Z,23.79
2022-12-15T20:25:26.742Z,23.79
2022-12-15T20:27:55.014Z,23.80
2022-12-15T20:30:24.223Z,23.79
2022-12-15T20:32:52.366Z,23.81
2022-12-15T20:35:22.533Z,23.82
2022-12-15T20:37:50.903Z,23.82
2022-12-15T20:40:19.436Z,23.83
2022-12-15T20:42:47.658Z,23.82
2022-12-15T20:45:16.490Z,23.82
2022-12-15T20:47:45.938Z,23.82
2022-12-15T20:50:25.084Z,23.82
2022-12-15T20:52:53.385Z,23.82
2022-12-15T20:55:23.341Z,23.82
2022-12-15T20:57:51.478Z,23.82
2022-12-15T21:00:20.156Z,23.82
2022-12-15T21:02:48.556Z,23.83
2022-12-15T21:05:18.805Z,23.83
2022-12-15T21:07:48.525Z,23.83
2022-12-15T21:10:17.418Z,23.83
2022-12-15T21:12:46.807Z,23.84
2022-12-15T21:15:16.222Z,23.83
2022-12-15T21:17:44.441Z,23.83
2022-12-15T21:20:13.257Z,23.83
2022-12-15T21:22:41.488Z,23.83
2022-12-15T21:25:24.068Z,23.82
2022-12-15T21:27:52.166Z,23.82
2022-12-15T21:30:21.692Z,23.81
2022-12-15T21:32:49.927Z,23.80
2022-12-15T21:35:19.050Z,23.80
2022-12-15T21:37:48.059Z,23.79
2022-12-15T21:40:21.450Z,23.79
2022-12-15T21:42:50.063Z,23.78
2022-12-15T21:45:19.017Z,23.77
2022-12-15T21:48:04.530Z,23.77
2022-12-15T21:50:32.736Z,23.77
2022-12-15T21:53:01.005Z,23.77
2022-12-15T21:55:30.593Z,23.76
2022-12-15T21:57:58.864Z,23.76
2022-12-15T22:00:27.382Z,23.75
2022-12-15T22:02:55.640Z,23.75
2022-12-15T22:05:24.708Z,23.75
2022-12-15T22:07:52.873Z,23.74
2022-12-15T22:10:21.012Z,23.72
2022-12-15T22:12:57.497Z,23.71
2022-12-15T22:15:27.815Z,23.70
2022-12-15T22:17:56.144Z,23.69
2022-12-15T22:20:25.117Z,23.69
2022-12-15T22:22:53.310Z,23.67
2022-12-15T22:25:24.136Z,23.67
2022-12-15T22:27:54.787Z,23.67
2022-12-15T22:30:26.232Z,23.66
2022-12-15T22:32:54.670Z,23.66
2022-12-15T22:35:24.371Z,23.66
2022-12-15T22:37:53.902Z,23.66
2022-12-15T22:40:23.441Z,23.64
2022-12-15T22:42:55.196Z,23.64
2022-12-15T22:45:24.091Z,23.64
2022-12-15T22:47:52.590Z,23.62
2022-12-15T22:50:22.190Z,23.63
2022-12-15T22:52:50.362Z,23.63
2022-12-15T22:55:20.920Z,23.61
2022-12-15T22:57:52.906Z,23.61
2022-12-15T23:00:22.602Z,23.60
2022-12-15T23:02:50.809Z,23.60
2022-12-15T23:05:20.073Z,23.58
2022-12-15T23:07:48.293Z,23.58
2022-12-15T23:10:35.072Z,23.59
2022-12-15T23:13:03.315Z,23.58
2022-12-15T23:15:50.165Z,23.57
2022-12-15T23:18:19.969Z,23.56
2022-12-15T23:20:48.093Z,23.56
2022-12-15T23:23:17.008Z,23.56
2022-12-15T23:25:46.814Z,23.55
2022-12-15T23:28:15.432Z,23.56
2022-12-15T23:30:49.084Z,23.54
2022-12-15T23:33:17.477Z,23.53
2022-12-15T23:35:45.737Z,23.53
2022-12-15T23:38:14.045Z,23.52
2022-12-15T23:40:50.982Z,23.53
2022-12-15T23:43:21.424Z,23.52
2022-12-15T23:45:58.182Z,23.51
2022-12-15T23:48:26.887Z,23.51
2022-12-15T23:50:55.157Z,23.50
2022-12-15T23:53:23.606Z,23.50
2022-12-15T23:55:51.907Z,23.49
2022-12-15T23:58:20.214Z,23.48
